Time;durP1;ratioP1;P1;durP2;ratioP2;P2;SDS_P1;SDS_P2;PMS_P1;PMS_P2;Temp;Humidity;BMP_temperature;BMP_pressure;BME280_temperature;BME280_humidity;BME280_pressure;Samples;Min_cycle;Max_cycle;Signal;HPM_P1;HPM_P2
2020/12/04 00:01:42;;;;;;;17.08;10.93;;;5.70;54.80;;;;;;5116756;28;20027;-53
2020/12/04 00:04:07;;;;;;;14.93;9.80;;;5.80;54.80;;;;;;5116794;28;20032;-49
2020/12/04 00:06:34;;;;;;;15.88;10.32;;;5.80;54.80;;;;;;5116585;28;20043;-54
2020/12/04 00:09:01;;;;;;;15.32;9.77;;;5.70;54.60;;;;;;5116894;28;20027;-48
2020/12/04 00:11:27;;;;;;;15.57;10.05;;;5.70;54.50;;;;;;5116858;28;20027;-54
2020/12/04 00:13:53;;;;;;;16.08;10.30;;;5.70;54.90;;;;;;5116581;28;20461;-52
2020/12/04 00:16:19;;;;;;;18.30;11.23;;;5.70;54.60;;;;;;5116828;28;20151;-53
2020/12/04 00:18:45;;;;;;;18.48;10.63;;;5.70;55.10;;;;;;5116438;28;20385;-52
2020/12/04 00:21:14;;;;;;;17.08;10.57;;;5.70;54.50;;;;;;5116438;28;20024;-52
2020/12/04 00:23:40;;;;;;;17.65;11.15;;;5.70;54.90;;;;;;5116269;28;20019;-47
2020/12/04 00:26:06;;;;;;;18.52;10.63;;;5.80;54.80;;;;;;5116249;28;20106;-51
2020/12/04 00:28:32;;;;;;;17.25;10.68;;;5.80;54.60;;;;;;5116620;28;20028;-49
2020/12/04 00:30:57;;;;;;;18.08;10.77;;;5.70;54.90;;;;;;5116448;28;20055;-53
2020/12/04 00:33:23;;;;;;;18.10;11.52;;;5.70;55.20;;;;;;5116387;28;20388;-49
2020/12/04 00:35:49;;;;;;;20.05;11.68;;;5.70;55.00;;;;;;5116104;28;20130;-52
2020/12/04 00:38:15;;;;;;;19.88;11.25;;;5.70;54.00;;;;;;5116044;28;20455;-54
2020/12/04 00:40:41;;;;;;;18.63;11.25;;;5.70;54.20;;;;;;5116075;28;20023;-52
2020/12/04 00:43:07;;;;;;;18.30;11.07;;;5.70;54.30;;;;;;5114697;28;20110;-57
2020/12/04 00:45:33;;;;;;;17.55;11.07;;;5.60;54.10;;;;;;5116113;28;20024;-55
2020/12/04 00:47:59;;;;;;;19.20;10.00;;;5.70;53.90;;;;;;5115993;28;20031;-56
2020/12/04 00:50:24;;;;;;;19.08;11.27;;;5.60;53.50;;;;;;5115870;28;20051;-51
2020/12/04 00:52:53;;;;;;;19.55;12.00;;;5.60;53.80;;;;;;5115799;28;20020;-52
2020/12/04 00:55:19;;;;;;;16.65;11.15;;;5.50;53.60;;;;;;5115803;28;20034;-50
2020/12/04 00:57:44;;;;;;;18.83;11.20;;;5.50;53.60;;;;;;5115723;28;20036;-50
2020/12/04 01:00:11;;;;;;;18.58;11.18;;;5.60;54.00;;;;;;5115611;28;20023;-52
2020/12/04 01:02:37;;;;;;;17.58;11.18;;;5.60;53.80;;;;;;5115736;28;20122;-50
2020/12/04 01:05:04;;;;;;;18.05;10.77;;;5.60;53.90;;;;;;5115588;28;20061;-52
2020/12/04 01:07:30;;;;;;;19.13;11.82;;;5.60;54.00;;;;;;5115877;28;20043;-50
2020/12/04 01:09:56;;;;;;;17.52;10.52;;;5.60;54.50;;;;;;5115780;28;20353;-49
2020/12/04 01:12:22;;;;;;;21.08;11.75;;;5.60;54.30;;;;;;5115473;28;20400;-49
2020/12/04 01:14:48;;;;;;;18.42;11.10;;;5.60;54.50;;;;;;5115614;28;20026;-49
2020/12/04 01:17:15;;;;;;;22.35;11.98;;;5.60;54.20;;;;;;5115408;28;20473;-54
2020/12/04 01:19:41;;;;;;;20.52;10.90;;;5.60;54.70;;;;;;5115598;28;20023;-52
2020/12/04 01:22:07;;;;;;;19.23;11.80;;;5.60;54.30;;;;;;5115193;28;20030;-53
2020/12/04 01:24:33;;;;;;;17.58;10.52;;;5.50;54.10;;;;;;5115236;28;20027;-53
2020/12/04 01:26:58;;;;;;;17.73;11.35;;;5.50;54.60;;;;;;5114992;28;20041;-54
2020/12/04 01:29:24;;;;;;;19.92;11.90;;;5.50;54.50;;;;;;5115118;28;20024;-51
2020/12/04 01:31:50;;;;;;;19.70;11.43;;;5.50;54.50;;;;;;5115376;28;20028;-52
2020/12/04 01:34:16;;;;;;;18.38;11.57;;;5.60;54.40;;;;;;5115019;28;20134;-49
2020/12/04 01:36:42;;;;;;;18.05;11.18;;;5.60;55.20;;;;;;5114960;28;20039;-52
2020/12/04 01:39:08;;;;;;;18.88;11.23;;;5.70;55.60;;;;;;5114919;28;20059;-51
2020/12/04 01:41:35;;;;;;;16.83;10.57;;;5.70;54.90;;;;;;5114879;28;20027;-53
2020/12/04 01:44:02;;;;;;;18.50;10.75;;;5.70;55.00;;;;;;5114728;28;20020;-49
2020/12/04 01:46:28;;;;;;;20.25;11.65;;;5.70;55.40;;;;;;5114695;28;20039;-50
2020/12/04 01:48:54;;;;;;;20.88;12.98;;;5.70;56.10;;;;;;5114730;28;20483;-51
2020/12/04 01:51:21;;;;;;;19.88;12.00;;;5.70;55.50;;;;;;5114904;28;20104;-47
2020/12/04 01:53:49;;;;;;;20.70;12.13;;;5.70;55.30;;;;;;5114310;28;20023;-52
2020/12/04 01:56:16;;;;;;;19.83;12.27;;;5.70;55.20;;;;;;5114586;28;20041;-52
2020/12/04 01:58:42;;;;;;;21.67;12.00;;;5.70;55.00;;;;;;5114866;28;20019;-54
2020/12/04 02:01:12;;;;;;;21.98;12.55;;;5.70;54.90;;;;;;5114440;28;20480;-54
2020/12/04 02:03:40;;;;;;;20.38;12.40;;;5.70;55.00;;;;;;5114527;28;20516;-52
2020/12/04 02:06:21;;;;;;;22.30;12.43;;;5.60;54.80;;;;;;5114360;28;20028;-52
2020/12/04 02:09:04;;;;;;;21.45;12.65;;;5.60;54.80;;;;;;5114708;28;20027;-54
2020/12/04 02:11:31;;;;;;;22.35;13.05;;;5.60;55.00;;;;;;5114595;28;20027;-55
2020/12/04 02:13:58;;;;;;;19.30;12.10;;;5.60;55.30;;;;;;5114191;28;20023;-52
2020/12/04 02:16:25;;;;;;;21.75;12.98;;;5.70;55.20;;;;;;5114222;28;20034;-52
2020/12/04 02:18:51;;;;;;;30.77;13.50;;;5.60;55.10;;;;;;5114303;28;20431;-54
2020/12/04 02:21:18;;;;;;;22.23;12.75;;;5.60;55.30;;;;;;5114122;28;20023;-55
2020/12/04 02:23:49;;;;;;;21.17;12.23;;;5.60;55.60;;;;;;5114041;28;20479;-51
2020/12/04 02:26:21;;;;;;;22.40;12.87;;;5.60;55.40;;;;;;5114431;28;20070;-56
2020/12/04 02:28:47;;;;;;;;;;;5.70;55.50;;;;;;5114549;28;20952;-53
2020/12/04 02:31:14;;;;;;;23.52;12.55;;;5.60;56.00;;;;;;5114302;28;19919;-49
2020/12/04 02:33:40;;;;;;;21.20;11.35;;;5.60;56.20;;;;;;5113909;28;20032;-49
2020/12/04 02:36:07;;;;;;;22.38;13.00;;;5.60;56.20;;;;;;5113678;28;20131;-53
2020/12/04 02:38:33;;;;;;;22.85;12.48;;;5.60;56.50;;;;;;5113866;28;20023;-54
2020/12/04 02:40:59;;;;;;;21.23;11.73;;;5.60;56.10;;;;;;5113789;28;20036;-52
2020/12/04 02:43:26;;;;;;;19.95;11.20;;;5.60;55.80;;;;;;5113836;28;20149;-51
2020/12/04 02:45:52;;;;;;;22.00;11.57;;;5.60;55.70;;;;;;5113942;28;20032;-52
2020/12/04 02:48:18;;;;;;;19.02;11.75;;;5.50;55.60;;;;;;5112420;28;20396;-50
2020/12/04 02:50:45;;;;;;;20.40;12.23;;;5.50;55.90;;;;;;5113731;28;20108;-52
2020/12/04 02:53:11;;;;;;;24.58;13.43;;;5.50;55.70;;;;;;5113564;28;20020;-53
2020/12/04 02:55:36;;;;;;;23.33;11.93;;;5.40;55.30;;;;;;5113969;28;20028;-48
2020/12/04 02:58:03;;;;;;;21.85;12.57;;;5.40;55.30;;;;;;5113651;28;20484;-52
2020/12/04 03:00:29;;;;;;;21.63;12.60;;;5.40;55.40;;;;;;5113574;28;20080;-46
2020/12/04 03:02:55;;;;;;;23.23;12.88;;;5.30;54.90;;;;;;5113824;28;20032;-52
2020/12/04 03:05:20;;;;;;;20.75;12.25;;;5.30;55.10;;;;;;5114369;28;20080;-51
2020/12/04 03:07:47;;;;;;;21.88;13.35;;;5.30;55.40;;;;;;5117807;28;20055;-51
2020/12/04 03:10:13;;;;;;;20.55;12.23;;;5.20;55.30;;;;;;5117792;28;20081;-52
2020/12/04 03:12:41;;;;;;;21.13;12.68;;;5.20;55.20;;;;;;5117698;28;20031;-54
2020/12/04 03:15:09;;;;;;;23.70;12.57;;;5.10;55.40;;;;;;5117627;28;20028;-51
2020/12/04 03:17:35;;;;;;;20.85;12.32;;;5.20;55.50;;;;;;5117581;28;20077;-52
2020/12/04 03:20:02;;;;;;;22.98;12.00;;;5.10;55.40;;;;;;5117722;28;20366;-49
2020/12/04 03:22:28;;;;;;;20.73;12.20;;;5.10;55.50;;;;;;5117496;28;20012;-54
2020/12/04 03:24:54;;;;;;;29.50;13.40;;;5.10;55.70;;;;;;5117415;28;20035;-51
2020/12/04 03:27:22;;;;;;;22.27;12.57;;;5.10;56.30;;;;;;5116169;28;20059;-51
2020/12/04 03:29:48;;;;;;;21.13;11.43;;;5.10;56.60;;;;;;5117337;28;20130;-50
2020/12/04 03:32:15;;;;;;;21.08;11.13;;;5.10;56.40;;;;;;5117436;28;20081;-53
2020/12/04 03:34:41;;;;;;;22.73;12.45;;;5.10;56.20;;;;;;5117015;28;20050;-53
2020/12/04 03:37:07;;;;;;;20.75;12.15;;;5.10;56.60;;;;;;5115907;28;20043;-47
2020/12/04 03:39:33;;;;;;;21.67;12.25;;;5.10;56.70;;;;;;5117238;28;20024;-50
2020/12/04 03:41:59;;;;;;;19.52;12.02;;;5.10;56.90;;;;;;5117309;28;20465;-50
2020/12/04 03:44:25;;;;;;;20.42;11.13;;;5.10;57.30;;;;;;5117141;28;20034;-50
2020/12/04 03:46:51;;;;;;;21.05;12.27;;;5.00;57.40;;;;;;5117350;28;20494;-48
2020/12/04 03:49:17;;;;;;;21.80;12.43;;;5.10;57.50;;;;;;5117336;28;20024;-53
2020/12/04 03:51:44;;;;;;;19.80;11.75;;;5.00;57.50;;;;;;5116965;28;20484;-50
2020/12/04 03:54:15;;;;;;;21.58;11.75;;;5.00;57.60;;;;;;5116949;28;20106;-51
2020/12/04 03:56:41;;;;;;;;;;;5.00;57.50;;;;;;5117618;28;20499;-52
2020/12/04 03:59:07;;;;;;;19.92;11.70;;;5.00;57.40;;;;;;5108770;28;19994;-50
2020/12/04 04:01:34;;;;;;;21.45;12.15;;;5.00;57.40;;;;;;5096716;28;20119;-53
2020/12/04 04:04:00;;;;;;;25.20;11.82;;;5.00;57.50;;;;;;5096746;28;20363;-51
2020/12/04 04:06:26;;;;;;;25.17;11.63;;;5.00;57.80;;;;;;5096074;28;20127;-53
2020/12/04 04:08:52;;;;;;;20.60;11.88;;;5.00;58.10;;;;;;5104190;28;20103;-52
2020/12/04 04:11:18;;;;;;;21.55;12.15;;;5.00;58.60;;;;;;5116791;28;20032;-54
2020/12/04 04:13:44;;;;;;;25.75;12.02;;;5.00;58.80;;;;;;5116629;28;20076;-49
2020/12/04 04:16:10;;;;;;;21.50;11.75;;;5.00;58.80;;;;;;5116338;28;20028;-50
2020/12/04 04:18:37;;;;;;;67.90;32.80;;;5.00;58.60;;;;;;5116804;28;20023;-48
2020/12/04 04:21:09;;;;;;;46.63;24.50;;;5.00;58.60;;;;;;5116715;28;20019;-52
2020/12/04 04:23:35;;;;;;;36.30;19.02;;;5.00;58.70;;;;;;5116373;28;20039;-51
2020/12/04 04:26:01;;;;;;;33.50;18.42;;;5.00;59.00;;;;;;5116278;28;20053;-50
2020/12/04 04:28:27;;;;;;;25.15;12.98;;;5.00;59.10;;;;;;5116274;28;20031;-51
2020/12/04 04:30:53;;;;;;;22.00;11.80;;;5.00;59.20;;;;;;5116267;28;20027;-52
2020/12/04 04:33:19;;;;;;;21.13;11.52;;;5.00;59.30;;;;;;5116048;28;20035;-48
2020/12/04 04:35:45;;;;;;;25.08;12.15;;;5.00;59.40;;;;;;5115951;28;20048;-49
2020/12/04 04:38:11;;;;;;;22.23;11.25;;;5.00;59.40;;;;;;5115987;28;20034;-49
2020/12/04 04:40:37;;;;;;;22.63;12.52;;;5.00;59.40;;;;;;5116167;28;20031;-53
2020/12/04 04:43:14;;;;;;;22.95;11.77;;;5.00;59.50;;;;;;5116272;28;20039;-54
2020/12/04 04:45:41;;;;;;;26.63;16.25;;;5.00;59.70;;;;;;5115812;28;20027;-54
2020/12/04 04:48:27;;;;;;;28.77;15.63;;;5.00;59.50;;;;;;5114504;28;20500;-54
2020/12/04 04:50:55;;;;;;;27.23;15.48;;;5.00;59.50;;;;;;5114649;28;20380;-48
2020/12/04 04:53:22;;;;;;;20.05;12.55;;;5.00;59.60;;;;;;5115732;28;20039;-53
2020/12/04 04:55:48;;;;;;;24.85;14.45;;;5.00;59.50;;;;;;5115733;28;20054;-56
2020/12/04 04:58:14;;;;;;;26.70;13.65;;;5.00;59.80;;;;;;5115818;28;20020;-53
2020/12/04 05:00:40;;;;;;;23.08;14.20;;;5.10;60.70;;;;;;5115531;28;20031;-50
2020/12/04 05:03:09;;;;;;;26.33;13.88;;;5.10;60.60;;;;;;5095336;28;20028;-53
2020/12/04 05:05:52;;;;;;;22.17;13.85;;;5.10;60.70;;;;;;5095042;28;20024;-52
2020/12/04 05:08:19;;;;;;;23.23;13.15;;;5.10;61.60;;;;;;5095641;28;20028;-49
2020/12/04 05:10:47;;;;;;;28.98;14.27;;;5.10;62.00;;;;;;5093782;28;20081;-48
2020/12/04 05:13:20;;;;;;;34.55;12.85;;;5.10;61.10;;;;;;5094902;28;20119;-53
2020/12/04 05:15:47;;;;;;;25.88;12.93;;;5.10;60.80;;;;;;5095164;28;20028;-55
2020/12/04 05:18:18;;;;;;;22.65;12.30;;;5.10;60.80;;;;;;5094932;28;20024;-51
2020/12/04 05:20:55;;;;;;;20.00;12.48;;;5.10;60.80;;;;;;5094812;28;20492;-49
2020/12/04 05:23:22;;;;;;;25.85;12.23;;;5.10;60.80;;;;;;5094958;28;20020;-52
2020/12/04 05:25:50;;;;;;;24.00;12.88;;;5.10;60.50;;;;;;5093361;28;20028;-49
2020/12/04 05:28:21;;;;;;;20.10;11.80;;;5.10;60.50;;;;;;5094230;28;20477;-55
2020/12/04 05:30:52;;;;;;;24.08;13.10;;;5.10;60.40;;;;;;5094686;28;20042;-53
2020/12/04 05:33:19;;;;;;;25.65;12.20;;;5.10;60.50;;;;;;5094591;28;20034;-52
2020/12/04 05:35:52;;;;;;;20.48;11.60;;;5.10;60.10;;;;;;5093059;28;20119;-55
2020/12/04 05:38:18;;;;;;;22.27;12.57;;;5.20;60.40;;;;;;5093301;28;20024;-53
2020/12/04 05:41:06;;;;;;;20.58;12.27;;;5.20;61.10;;;;;;5094497;28;20055;-52
2020/12/04 05:43:34;;;;;;;21.05;12.10;;;5.20;60.90;;;;;;5094812;28;20097;-50
2020/12/04 05:46:17;;;;;;;19.20;11.45;;;5.20;61.20;;;;;;5094147;28;20119;-52
2020/12/04 05:48:54;;;;;;;19.38;11.35;;;5.20;61.40;;;;;;5094305;28;20016;-55
2020/12/04 05:51:24;;;;;;;23.60;12.18;;;5.20;61.40;;;;;;5094459;28;20111;-54
2020/12/04 05:53:53;;;;;;;20.77;12.30;;;5.20;62.20;;;;;;5094377;28;20504;-53
2020/12/04 05:56:21;;;;;;;22.23;13.45;;;5.20;62.70;;;;;;5094436;28;20031;-53
2020/12/04 05:58:53;;;;;;;20.90;12.63;;;5.20;62.80;;;;;;5094041;28;20024;-54
2020/12/04 06:01:21;;;;;;;25.40;13.90;;;5.20;63.20;;;;;;5093694;28;20032;-53
2020/12/04 06:03:54;;;;;;;23.23;13.68;;;5.20;63.80;;;;;;5103275;28;20019;-54
2020/12/04 06:06:30;;;;;;;23.23;13.02;;;5.20;64.30;;;;;;5114570;28;20026;-53
2020/12/04 06:09:06;;;;;;;30.10;16.35;;;5.20;64.50;;;;;;5114235;28;20027;-51
2020/12/04 06:11:38;;;;;;;49.70;29.15;;;5.30;65.70;;;;;;5114402;28;20110;-55
2020/12/04 06:14:22;;;;;;;31.17;15.73;;;5.30;65.70;;;;;;5114071;28;20027;-55
2020/12/04 06:17:00;;;;;;;35.65;17.13;;;5.30;65.40;;;;;;5114467;28;20106;-56
2020/12/04 06:19:27;;;;;;;25.85;15.05;;;5.30;65.10;;;;;;5114211;28;20066;-51
2020/12/04 06:22:06;;;;;;;29.85;16.20;;;5.30;65.50;;;;;;5114315;28;20396;-55
2020/12/04 06:24:33;;;;;;;39.88;15.95;;;5.30;65.60;;;;;;5114243;28;20385;-52
2020/12/04 06:26:59;;;;;;;33.03;15.48;;;5.30;65.70;;;;;;5113747;28;20544;-47
2020/12/04 06:29:25;;;;;;;30.02;15.23;;;5.30;66.00;;;;;;5114773;28;20102;-54
2020/12/04 06:31:51;;;;;;;39.88;17.30;;;5.30;66.00;;;;;;5113807;28;20027;-55
2020/12/04 06:34:19;;;;;;;38.35;16.15;;;5.30;65.40;;;;;;5113816;28;20468;-52
2020/12/04 06:36:46;;;;;;;35.53;14.10;;;5.30;65.10;;;;;;5113727;28;20389;-52
2020/12/04 06:39:32;;;;;;;34.28;15.40;;;5.30;64.90;;;;;;5113743;28;20087;-51
2020/12/04 06:41:59;;;;;;;27.85;15.20;;;5.30;65.10;;;;;;5113883;28;20084;-55
2020/12/04 06:44:27;;;;;;;44.75;15.50;;;5.30;64.80;;;;;;5113951;28;20024;-53
2020/12/04 06:46:57;;;;;;;37.33;14.88;;;5.30;64.70;;;;;;5113747;28;20036;-55
2020/12/04 06:52:07;;;;;;;28.42;14.50;;;5.40;65.50;;;;;;5113536;28;20438;-54
2020/12/04 06:54:38;;;;;;;26.73;14.32;;;5.30;64.70;;;;;;5113831;28;20031;-55
2020/12/04 06:57:04;;;;;;;26.77;14.45;;;5.40;64.50;;;;;;5113611;28;20031;-49
2020/12/04 06:59:32;;;;;;;31.05;14.57;;;5.40;64.20;;;;;;5113841;28;20024;-51
2020/12/04 07:02:09;;;;;;;29.77;15.98;;;5.40;64.10;;;;;;5113408;28;20031;-52
2020/12/04 07:04:38;;;;;;;29.23;16.15;;;5.30;63.80;;;;;;5113404;28;20031;-55
2020/12/04 07:07:09;;;;;;;33.92;15.38;;;5.40;63.70;;;;;;5113681;28;20232;-52
2020/12/04 07:09:36;;;;;;;36.63;16.17;;;5.40;63.50;;;;;;5113781;28;20019;-53
2020/12/04 07:12:03;;;;;;;25.60;14.00;;;5.40;63.60;;;;;;5113725;28;20051;-51
2020/12/04 07:14:29;;;;;;;43.60;19.55;;;5.40;64.20;;;;;;5113633;28;20042;-52
2020/12/04 07:16:55;;;;;;;41.13;19.90;;;5.40;64.10;;;;;;5113264;28;20039;-55
2020/12/04 07:19:22;;;;;;;43.70;20.63;;;5.40;63.40;;;;;;5113314;28;20484;-55
2020/12/04 07:21:49;;;;;;;43.95;20.40;;;5.40;63.40;;;;;;5113182;28;20024;-45
2020/12/04 07:24:15;;;;;;;45.90;23.52;;;5.40;63.60;;;;;;5113280;28;20027;-51
2020/12/04 07:26:55;;;;;;;40.33;19.45;;;5.40;64.10;;;;;;5113146;28;20036;-50
2020/12/04 07:29:22;;;;;;;37.75;18.55;;;5.40;64.20;;;;;;5113604;28;20376;-53
2020/12/04 07:31:49;;;;;;;41.00;17.65;;;5.40;64.20;;;;;;5113153;28;20043;-52
2020/12/04 07:34:24;;;;;;;33.95;18.17;;;5.50;64.40;;;;;;5112868;28;20101;-55
2020/12/04 07:36:52;;;;;;;33.25;16.95;;;5.50;64.80;;;;;;5113126;28;20044;-53
2020/12/04 07:39:29;;;;;;;46.80;16.75;;;5.50;65.00;;;;;;5109884;28;20115;-48
2020/12/04 07:41:56;;;;;;;35.92;16.05;;;5.50;65.30;;;;;;5102649;28;20476;-51
2020/12/04 07:44:30;;;;;;;32.63;16.63;;;5.50;65.20;;;;;;5105153;28;20074;-51
2020/12/04 07:47:01;;;;;;;34.78;16.27;;;5.50;66.50;;;;;;5106301;28;20127;-50
2020/12/04 07:49:27;;;;;;;36.45;17.05;;;5.50;66.30;;;;;;5102516;28;20402;-53
2020/12/04 07:51:53;;;;;;;34.20;17.77;;;5.50;66.20;;;;;;5094271;28;20049;-52
2020/12/04 07:54:24;;;;;;;32.08;16.40;;;5.60;65.80;;;;;;5107612;28;20023;-48
2020/12/04 07:56:55;;;;;;;47.88;15.63;;;5.60;64.90;;;;;;5116793;28;20024;-50
2020/12/04 07:59:28;;;;;;;33.67;15.45;;;5.60;64.10;;;;;;5117191;28;20027;-51
2020/12/04 08:01:54;;;;;;;29.83;16.00;;;5.60;63.60;;;;;;5116846;28;20019;-51
2020/12/04 08:04:20;;;;;;;39.67;14.60;;;5.60;63.40;;;;;;5116740;28;20028;-52
2020/12/04 08:06:49;;;;;;;41.05;17.88;;;5.60;63.00;;;;;;5116597;28;20063;-50
2020/12/04 08:09:17;;;;;;;43.55;20.60;;;5.50;62.90;;;;;;5116565;28;20023;-53
2020/12/04 08:11:55;;;;;;;43.42;20.75;;;5.60;62.90;;;;;;5116537;28;20020;-49
2020/12/04 08:14:28;;;;;;;29.25;17.45;;;5.60;63.30;;;;;;5116488;28;20088;-55
2020/12/04 08:16:59;;;;;;;40.50;20.58;;;5.60;63.80;;;;;;5116863;28;20038;-49
2020/12/04 08:19:30;;;;;;;31.95;18.02;;;5.60;63.70;;;;;;5116454;28;20062;-47
2020/12/04 08:22:00;;;;;;;39.90;19.25;;;5.60;63.70;;;;;;5116360;28;20031;-51
2020/12/04 08:24:32;;;;;;;37.65;15.90;;;5.70;64.30;;;;;;5116313;28;20031;-54
2020/12/04 08:27:02;;;;;;;44.88;27.10;;;5.70;64.60;;;;;;5116610;28;20123;-48
2020/12/04 08:29:28;;;;;;;43.83;23.83;;;5.70;65.20;;;;;;5116261;28;20035;-52
2020/12/04 08:32:12;;;;;;;59.08;30.00;;;5.70;64.90;;;;;;5116191;28;20379;-54
2020/12/04 08:34:39;;;;;;;35.75;17.30;;;5.70;64.90;;;;;;5115904;28;20131;-48
2020/12/04 08:37:07;;;;;;;33.33;18.35;;;5.70;65.00;;;;;;5109323;28;20031;-51
2020/12/04 08:39:38;;;;;;;42.85;16.70;;;5.70;65.40;;;;;;5106198;28;20020;-55
2020/12/04 08:42:19;;;;;;;35.73;16.53;;;5.70;65.60;;;;;;5104511;28;20027;-52
2020/12/04 08:45:05;;;;;;;39.83;17.25;;;5.80;65.90;;;;;;5095563;28;20410;-55
2020/12/04 08:47:35;;;;;;;35.47;16.17;;;5.80;65.80;;;;;;5095720;28;20445;-55
2020/12/04 08:50:05;;;;;;;39.45;16.67;;;5.80;66.20;;;;;;5095320;28;20517;-53
2020/12/04 08:52:34;;;;;;;42.80;18.52;;;5.80;66.80;;;;;;5095694;28;20089;-54
2020/12/04 08:55:12;;;;;;;32.15;18.20;;;5.90;66.20;;;;;;5095635;28;20387;-52
2020/12/04 08:57:39;;;;;;;18.00;11.82;;;5.90;66.60;;;;;;5095298;28;20078;-50
2020/12/04 09:00:07;;;;;;;23.70;11.98;;;6.00;65.70;;;;;;5095224;28;20031;-55
2020/12/04 09:02:34;;;;;;;31.23;13.00;;;6.00;64.60;;;;;;5094483;28;20063;-47
2020/12/04 09:05:00;;;;;;;25.23;12.40;;;6.00;64.50;;;;;;5094872;28;20039;-54
2020/12/04 09:07:26;;;;;;;36.40;15.35;;;6.00;64.90;;;;;;5095056;28;20173;-51
2020/12/04 09:09:52;;;;;;;36.83;15.38;;;6.10;64.90;;;;;;5095083;28;20055;-53
2020/12/04 09:12:21;;;;;;;25.27;13.93;;;6.10;64.80;;;;;;5095087;28;20024;-50
2020/12/04 09:14:49;;;;;;;32.83;13.63;;;6.10;65.10;;;;;;5095298;28;20109;-55
2020/12/04 09:17:16;;;;;;;36.88;13.45;;;6.20;64.60;;;;;;5094870;28;20036;-53
2020/12/04 09:19:41;;;;;;;40.33;14.77;;;6.20;64.30;;;;;;5094874;28;20024;-54
2020/12/04 09:22:07;;;;;;;31.17;14.27;;;6.20;64.20;;;;;;5114463;28;20034;-54
2020/12/04 09:24:33;;;;;;;23.70;12.30;;;6.20;64.50;;;;;;5108465;28;20035;-45
2020/12/04 09:26:59;;;;;;;24.15;11.25;;;6.20;65.00;;;;;;5092968;28;20064;-51
2020/12/04 09:29:25;;;;;;;23.48;11.45;;;6.30;63.90;;;;;;5094715;28;20487;-52
2020/12/04 09:31:51;;;;;;;21.63;10.48;;;6.30;64.10;;;;;;5094531;28;20032;-55
2020/12/04 09:34:17;;;;;;;16.27;10.60;;;6.40;63.70;;;;;;5094443;28;20039;-54
2020/12/04 09:36:43;;;;;;;15.85;10.35;;;6.40;63.00;;;;;;5094658;28;20548;-55
2020/12/04 09:39:09;;;;;;;45.05;11.52;;;6.50;62.40;;;;;;5094267;28;20024;-53
2020/12/04 09:41:45;;;;;;;27.40;12.23;;;6.50;62.40;;;;;;5094327;28;20058;-53
2020/12/04 09:44:11;;;;;;;26.10;11.63;;;6.50;62.30;;;;;;5098435;28;20035;-53
2020/12/04 09:46:36;;;;;;;19.27;11.65;;;6.60;62.40;;;;;;5080349;28;20346;-53
2020/12/04 09:51:36;;;;;;;25.60;11.60;;;6.60;62.10;;;;;;5072114;28;20044;-60
2020/12/04 09:54:02;;;;;;;29.15;12.05;;;6.70;62.10;;;;;;5073596;28;20040;-60
2020/12/04 09:56:28;;;;;;;34.53;12.35;;;6.70;62.20;;;;;;5073798;28;20028;-60
2020/12/04 09:58:54;;;;;;;24.30;12.38;;;6.80;62.50;;;;;;5074109;28;20021;-60
2020/12/04 10:01:20;;;;;;;27.48;12.43;;;6.80;62.50;;;;;;5074145;28;20401;-61
2020/12/04 10:03:48;;;;;;;17.65;11.65;;;6.80;62.50;;;;;;5069664;28;20078;-60
2020/12/04 10:06:14;;;;;;;31.15;14.15;;;6.80;62.50;;;;;;5069132;28;20033;-60
2020/12/04 10:08:40;;;;;;;26.38;12.40;;;6.90;61.60;;;;;;5073690;28;20490;-60
2020/12/04 10:11:08;;;;;;;34.10;14.55;;;6.90;60.70;;;;;;5072348;28;20025;-60
2020/12/04 10:13:35;;;;;;;29.42;13.38;;;6.90;60.10;;;;;;5062578;28;20025;-60
2020/12/04 10:16:04;;;;;;;29.48;14.48;;;6.90;60.10;;;;;;5063749;28;20024;-60
2020/12/04 10:18:33;;;;;;;36.35;14.50;;;6.90;59.30;;;;;;5072043;28;20127;-60
2020/12/04 10:20:59;;;;;;;30.48;14.70;;;6.90;59.30;;;;;;5070702;28;20024;-59
2020/12/04 10:23:25;;;;;;;36.08;15.38;;;6.90;59.60;;;;;;5071981;28;20035;-59
2020/12/04 10:25:51;;;;;;;34.03;15.52;;;7.00;59.40;;;;;;5072862;28;20493;-61
2020/12/04 10:28:17;;;;;;;46.60;15.70;;;7.00;59.90;;;;;;5073701;28;20029;-61
2020/12/04 10:30:43;;;;;;;27.52;15.18;;;7.00;59.90;;;;;;5072556;28;20482;-61
2020/12/04 10:33:08;;;;;;;33.20;16.63;;;7.10;60.30;;;;;;5073135;28;20028;-61
2020/12/04 10:35:34;;;;;;;30.92;14.95;;;7.10;61.00;;;;;;5073449;28;20082;-61
2020/12/04 10:38:00;;;;;;;32.70;16.63;;;7.10;60.50;;;;;;5073153;28;20032;-61
2020/12/04 10:40:26;;;;;;;40.38;16.02;;;7.10;59.70;;;;;;5073493;28;20423;-61
2020/12/04 10:42:52;;;;;;;35.65;14.80;;;7.10;59.50;;;;;;5073342;28;20467;-61
2020/12/04 10:45:18;;;;;;;36.40;13.60;;;7.10;59.10;;;;;;5073123;28;20021;-61
2020/12/04 10:47:44;;;;;;;28.85;13.50;;;7.10;58.70;;;;;;5073361;28;20470;-61
2020/12/04 10:50:10;;;;;;;31.23;14.85;;;7.20;58.90;;;;;;5073021;28;20051;-62
2020/12/04 10:52:35;;;;;;;27.35;14.55;;;7.20;59.50;;;;;;5073287;28;20124;-61
2020/12/04 10:55:01;;;;;;;36.78;14.13;;;7.30;59.30;;;;;;5072985;28;20363;-61
2020/12/04 10:57:28;;;;;;;30.48;15.32;;;7.30;59.40;;;;;;5072486;28;20036;-60
2020/12/04 10:59:53;;;;;;;29.08;14.60;;;7.30;59.80;;;;;;5071875;28;20020;-61
2020/12/04 11:02:28;;;;;;;19.50;12.68;;;7.40;60.20;;;;;;5073301;28;20035;-60
2020/12/04 11:07:38;;;;;;;21.20;10.32;;;7.60;59.40;;;;;;5072834;28;20148;-61
2020/12/04 11:10:04;;;;;;;21.08;10.35;;;7.60;59.10;;;;;;5071536;28;20066;-61
2020/12/04 11:12:30;;;;;;;22.40;11.38;;;7.60;58.50;;;;;;5073066;28;20035;-61
2020/12/04 11:14:56;;;;;;;19.48;11.00;;;7.60;58.80;;;;;;5072671;28;20417;-61
2020/12/04 11:17:22;;;;;;;18.35;10.38;;;7.70;58.80;;;;;;5072818;28;20027;-61
2020/12/04 11:19:48;;;;;;;20.23;10.88;;;7.70;58.20;;;;;;5072849;28;20489;-60
2020/12/04 11:22:14;;;;;;;21.52;11.05;;;7.70;58.20;;;;;;5072865;28;20378;-62
2020/12/04 11:24:40;;;;;;;22.33;11.77;;;7.70;58.40;;;;;;5072803;28;20033;-60
2020/12/04 11:27:07;;;;;;;25.23;12.05;;;7.70;58.60;;;;;;5074746;28;20128;-61
2020/12/04 11:29:33;;;;;;;20.13;11.73;;;7.70;58.10;;;;;;5077031;28;20386;-61
2020/12/04 11:31:59;;;;;;;20.38;10.65;;;7.70;58.00;;;;;;5076501;28;20025;-60
2020/12/04 11:34:24;;;;;;;20.90;10.90;;;7.70;57.80;;;;;;5076543;28;20535;-61
2020/12/04 11:36:50;;;;;;;19.73;11.35;;;7.70;58.40;;;;;;5076806;28;20016;-60
2020/12/04 11:39:16;;;;;;;35.53;13.13;;;7.70;57.80;;;;;;5075430;28;20400;-59
2020/12/04 11:41:42;;;;;;;21.83;12.02;;;7.70;58.10;;;;;;5075136;28;20020;-59
2020/12/04 11:44:08;;;;;;;37.08;13.90;;;7.70;58.60;;;;;;5074839;28;20432;-57
2020/12/04 11:46:34;;;;;;;36.30;19.38;;;7.70;58.50;;;;;;5074476;28;20037;-58
2020/12/04 11:49:00;;;;;;;28.65;17.75;;;7.70;58.70;;;;;;5075619;28;20127;-59
2020/12/04 11:51:26;;;;;;;32.22;16.30;;;7.70;59.00;;;;;;5076104;28;20098;-60
2020/12/04 11:53:51;;;;;;;27.90;15.27;;;7.70;59.20;;;;;;5075164;28;20036;-59
2020/12/04 11:56:17;;;;;;;32.80;16.70;;;7.70;59.30;;;;;;5076361;28;20021;-59
2020/12/04 11:58:44;;;;;;;31.20;16.75;;;7.70;59.00;;;;;;5076444;28;20456;-59
2020/12/04 12:01:10;;;;;;;31.63;19.02;;;7.70;59.30;;;;;;5075296;28;20021;-59
2020/12/04 12:03:35;;;;;;;34.65;18.08;;;7.70;59.40;;;;;;5073431;28;20097;-60
2020/12/04 12:06:01;;;;;;;33.60;17.17;;;7.70;59.20;;;;;;5075805;28;20073;-61
2020/12/04 12:08:27;;;;;;;36.70;17.15;;;7.70;59.00;;;;;;5075970;28;20032;-59
2020/12/04 12:10:55;;;;;;;44.00;18.67;;;7.80;58.80;;;;;;5076144;28;20071;-59
2020/12/04 12:13:22;;;;;;;30.95;15.13;;;7.80;58.90;;;;;;5075885;28;20522;-59
2020/12/04 12:15:48;;;;;;;26.30;12.32;;;7.80;58.50;;;;;;5075796;28;20029;-60
2020/12/04 12:18:13;;;;;;;29.08;12.65;;;7.80;58.40;;;;;;5075804;28;20392;-59
2020/12/04 12:20:39;;;;;;;28.00;14.82;;;7.80;58.60;;;;;;5075862;28;20078;-58
2020/12/04 12:23:05;;;;;;;35.60;15.57;;;7.80;58.70;;;;;;5076002;28;20067;-59
2020/12/04 12:25:31;;;;;;;46.35;15.27;;;7.80;58.90;;;;;;5075635;28;20504;-58
2020/12/04 12:27:57;;;;;;;25.98;13.70;;;7.80;59.00;;;;;;5075403;28;20032;-59
2020/12/04 12:30:23;;;;;;;28.63;14.25;;;7.80;59.00;;;;;;5075595;28;20074;-59
2020/12/04 12:32:49;;;;;;;26.40;12.77;;;7.80;59.00;;;;;;5075364;28;20071;-59
2020/12/04 12:35:15;;;;;;;37.97;15.40;;;7.80;58.90;;;;;;5075649;28;20046;-59
2020/12/04 12:37:44;;;;;;;20.30;11.70;;;7.80;59.10;;;;;;5075288;28;20478;-59
2020/12/04 12:40:12;;;;;;;34.47;12.30;;;7.80;58.70;;;;;;5075550;28;20039;-57
2020/12/04 12:42:38;;;;;;;20.80;11.82;;;7.80;58.70;;;;;;5075404;28;20029;-59
2020/12/04 12:45:05;;;;;;;23.65;12.85;;;7.80;58.60;;;;;;5075264;28;20020;-59
2020/12/04 12:47:31;;;;;;;47.17;14.82;;;7.80;58.60;;;;;;5075085;28;20083;-59
2020/12/04 12:49:57;;;;;;;28.42;12.75;;;7.80;58.90;;;;;;5075094;28;20068;-58